Time;durP1;ratioP1;P1;durP2;ratioP2;P2;SDS_P1;SDS_P2;PMS_P1;PMS_P2;Temp;Humidity;BMP_temperature;BMP_pressure;BME280_temperature;BME280_humidity;BME280_pressure;Samples;Min_cycle;Max_cycle;Signal;HPM_P1;HPM_P2
2024/04/21 00:00:43;;;;;;;3.42;2.35;;;;;;;4.00;100.00;101947.91;5169176;27;20019;-73
2024/04/21 00:03:08;;;;;;;3.45;2.67;;;;;;;3.95;100.00;101959.09;5162926;27;20008;-73
2024/04/21 00:05:34;;;;;;;3.30;2.28;;;;;;;3.93;100.00;101953.16;5161180;27;20015;-73
2024/04/21 00:08:02;;;;;;;3.58;2.88;;;;;;;3.90;100.00;101968.63;5166743;27;20010;-75
2024/04/21 00:10:29;;;;;;;5.28;3.80;;;;;;;3.88;100.00;101966.19;5162432;27;20511;-74
2024/04/21 00:12:55;;;;;;;5.80;4.07;;;;;;;3.90;100.00;101964.16;5138997;27;20012;-73
2024/04/21 00:15:20;;;;;;;5.15;3.45;;;;;;;3.91;100.00;101972.91;5189331;27;20063;-74
2024/04/21 00:17:46;;;;;;;4.63;3.17;;;;;;;3.89;100.00;101962.50;5192623;27;20008;-74
2024/04/21 00:20:12;;;;;;;5.25;3.67;;;;;;;3.84;100.00;101962.28;5191418;27;20011;-73
2024/04/21 00:22:37;;;;;;;4.40;3.38;;;;;;;3.77;100.00;101964.88;5173829;27;20015;-74
2024/04/21 00:25:03;;;;;;;4.13;3.30;;;;;;;3.75;100.00;101966.09;5162631;27;20020;-74
2024/04/21 00:27:29;;;;;;;4.70;3.00;;;;;;;3.68;100.00;101975.84;5157985;27;20000;-76
2024/04/21 00:29:56;;;;;;;4.65;3.55;;;;;;;3.60;100.00;101974.16;5183416;27;20016;-74
2024/04/21 00:32:24;;;;;;;4.45;3.30;;;;;;;3.54;100.00;101970.44;5198925;27;20003;-74
2024/04/21 00:34:50;;;;;;;5.32;3.80;;;;;;;3.51;100.00;101970.81;5166571;27;20007;-75
2024/04/21 00:37:16;;;;;;;4.90;3.70;;;;;;;3.44;100.00;101969.94;5162977;27;20011;-74
2024/04/21 00:39:41;;;;;;;5.40;3.55;;;;;;;3.41;100.00;101975.63;5169992;27;20079;-74
2024/04/21 00:42:07;;;;;;;6.65;3.72;;;;;;;3.38;100.00;101973.34;5160291;27;20016;-73
2024/04/21 00:44:34;;;;;;;4.75;3.15;;;;;;;3.34;100.00;101984.53;5157380;27;20008;-73
2024/04/21 00:47:00;;;;;;;3.75;2.80;;;;;;;3.30;100.00;101984.09;5162737;27;20462;-75
2024/04/21 00:49:26;;;;;;;4.32;3.28;;;;;;;3.25;100.00;101982.03;5170946;27;20907;-73
2024/04/21 00:51:53;;;;;;;4.25;3.25;;;;;;;3.24;100.00;101992.78;5162205;27;20750;-73
2024/04/21 00:54:19;;;;;;;4.40;3.42;;;;;;;3.15;100.00;101986.81;5186870;27;20004;-73
2024/04/21 00:56:46;;;;;;;7.85;3.63;;;;;;;3.14;100.00;101997.59;5193019;27;20026;-74
2024/04/21 00:59:15;;;;;;;5.45;3.45;;;;;;;3.13;100.00;102003.91;5169071;27;20022;-72
2024/04/21 01:01:42;;;;;;;5.93;3.10;;;;;;;3.09;100.00;102002.63;5148917;27;20012;-74
2024/04/21 01:04:08;;;;;;;4.90;3.53;;;;;;;3.07;100.00;102005.47;5147944;27;20013;-75
2024/04/21 01:06:34;;;;;;;4.63;3.20;;;;;;;3.03;100.00;101998.09;5193021;27;20000;-74
2024/04/21 01:09:01;;;;;;;4.63;3.25;;;;;;;3.01;100.00;102007.06;5199749;27;20000;-74
2024/04/21 01:11:27;;;;;;;5.15;3.10;;;;;;;2.99;100.00;102003.78;5187517;27;20006;-73
2024/04/21 01:13:52;;;;;;;5.38;3.70;;;;;;;2.95;100.00;101997.22;5164524;27;20003;-75
2024/04/21 01:16:19;;;;;;;4.05;3.20;;;;;;;2.93;100.00;102009.00;5167010;27;20548;-74
2024/04/21 01:18:46;;;;;;;4.50;3.17;;;;;;;2.90;100.00;102012.81;5115414;27;20083;-74
2024/04/21 01:21:12;;;;;;;4.65;3.50;;;;;;;2.90;100.00;102020.75;5171334;27;20059;-74
2024/04/21 01:23:38;;;;;;;4.95;2.90;;;;;;;2.89;100.00;102008.56;5167625;27;20113;-74
2024/04/21 01:26:04;;;;;;;4.50;3.13;;;;;;;2.86;100.00;102019.53;5160782;27;20012;-74
2024/04/21 01:28:30;;;;;;;5.32;3.13;;;;;;;2.83;100.00;102019.88;5149863;27;20004;-74
2024/04/21 01:30:57;;;;;;;6.15;2.88;;;;;;;2.77;100.00;102010.03;5176182;27;20008;-75
2024/04/21 01:33:23;;;;;;;5.90;3.25;;;;;;;2.74;100.00;102010.44;5156119;27;20004;-73
2024/04/21 01:35:48;;;;;;;4.72;2.90;;;;;;;2.69;100.00;102013.63;5181072;27;20026;-74
2024/04/21 01:38:14;;;;;;;4.35;3.20;;;;;;;2.69;100.00;102018.09;5191163;27;20409;-75
2024/04/21 01:40:40;;;;;;;8.82;3.10;;;;;;;2.64;100.00;102021.31;5154379;27;20019;-73
2024/04/21 01:43:06;;;;;;;4.70;3.13;;;;;;;2.66;100.00;102013.19;5145090;27;20746;-73
2024/04/21 01:45:31;;;;;;;4.68;3.08;;;;;;;2.63;100.00;102022.31;5169858;27;20497;-75
2024/04/21 01:47:57;;;;;;;4.10;2.97;;;;;;;2.60;100.00;102021.88;5115074;27;20906;-74
2024/04/21 01:50:24;;;;;;;3.67;3.03;;;;;;;2.55;100.00;102027.69;5141615;27;19999;-76
2024/04/21 01:52:50;;;;;;;5.22;3.17;;;;;;;2.53;100.00;102031.53;5145172;27;20007;-73
2024/04/21 01:55:16;;;;;;;4.85;3.42;;;;;;;2.50;100.00;102026.59;5164386;27;20003;-75
2024/04/21 01:57:43;;;;;;;5.00;3.30;;;;;;;2.47;100.00;102035.75;5193523;27;20023;-73
2024/04/21 02:00:09;;;;;;;5.60;3.17;;;;;;;2.44;100.00;102031.66;5205032;27;20054;-73
2024/04/21 02:02:38;;;;;;;4.60;3.17;;;;;;;2.38;100.00;102039.50;5194856;27;20078;-75
2024/04/21 02:05:05;;;;;;;5.22;3.25;;;;;;;2.35;100.00;102034.56;5166400;27;20450;-74
2024/04/21 02:07:30;;;;;;;;;;;;;;;2.36;100.00;102044.13;5142475;27;20018;-73
2024/04/21 02:09:56;;;;;;;4.55;2.75;;;;;;;2.32;100.00;102043.69;5201855;27;19999;-74
2024/04/21 02:12:22;;;;;;;5.38;3.20;;;;;;;2.30;100.00;102037.75;5170459;27;20691;-74
2024/04/21 02:14:48;;;;;;;5.25;3.42;;;;;;;2.30;100.00;102050.16;5165548;27;20036;-75
2024/04/21 02:17:13;;;;;;;5.82;3.70;;;;;;;2.31;100.00;102046.53;5145281;27;20833;-75
2024/04/21 02:19:39;;;;;;;4.63;3.00;;;;;;;2.28;100.00;102057.44;5165675;27;20011;-75
2024/04/21 02:22:04;;;;;;;5.50;3.03;;;;;;;2.25;100.00;102061.28;5179728;27;20007;-74
2024/04/21 02:24:41;;;;;;;5.10;2.97;;;;;;;2.21;100.00;102062.63;5177027;27;20079;-75
2024/04/21 02:27:07;;;;;;;4.85;2.65;;;;;;;2.16;100.00;102059.72;5185670;27;20080;-74
2024/04/21 02:29:33;;;;;;;5.28;3.47;;;;;;;2.11;100.00;102060.28;5154619;27;20015;-74
2024/04/21 02:31:59;;;;;;;5.05;3.17;;;;;;;2.00;100.00;102071.28;5173663;27;20826;-74
2024/04/21 02:34:24;;;;;;;4.72;2.88;;;;;;;1.99;100.00;102079.41;5167612;27;20053;-74
2024/04/21 02:36:50;;;;;;;3.88;2.55;;;;;;;1.96;100.00;102079.75;5167700;27;20070;-75
2024/04/21 02:39:15;;;;;;;4.72;2.90;;;;;;;1.91;100.00;102099.59;5169682;27;20487;-74
2024/04/21 02:41:41;;;;;;;4.32;2.90;;;;;;;1.90;100.00;102086.59;5198533;27;20084;-75
2024/04/21 02:44:07;;;;;;;5.43;2.67;;;;;;;1.86;100.00;102095.84;5200634;27;20489;-74
2024/04/21 02:46:33;;;;;;;5.22;3.00;;;;;;;1.82;100.00;102095.38;5195213;27;20080;-75
2024/04/21 02:49:00;;;;;;;3.55;2.30;;;;;;;1.83;100.00;102097.03;5192604;27;20847;-74
2024/04/21 02:51:27;;;;;;;5.68;3.40;;;;;;;1.80;100.00;102100.03;5195133;27;20019;-74
2024/04/21 02:53:53;;;;;;;4.47;2.85;;;;;;;1.79;100.00;102108.97;5193903;27;20008;-75
2024/04/21 02:56:19;;;;;;;4.68;3.08;;;;;;;1.75;100.00;102110.28;5187117;27;20003;-74
2024/04/21 02:58:44;;;;;;;5.38;3.30;;;;;;;1.73;100.00;102106.22;5166526;27;20735;-74
2024/04/21 03:01:10;;;;;;;6.15;3.03;;;;;;;1.69;100.00;102113.66;5145056;27;20037;-75
2024/04/21 03:03:36;;;;;;;3.97;2.53;;;;;;;1.70;100.00;102104.75;5167438;27;20027;-74
2024/04/21 03:06:02;;;;;;;5.18;3.00;;;;;;;1.69;100.00;102115.47;5144765;27;20020;-74
2024/04/21 03:08:28;;;;;;;7.50;3.10;;;;;;;1.69;100.00;102108.38;5167445;27;20051;-75
2024/04/21 03:10:54;;;;;;;5.03;2.92;;;;;;;1.73;100.00;102122.06;5202374;27;20015;-75
2024/04/21 03:13:19;;;;;;;5.13;3.20;;;;;;;1.71;100.00;102118.78;5170107;27;20008;-74
2024/04/21 03:15:45;;;;;;;5.43;3.13;;;;;;;1.66;100.00;102124.56;5199100;27;20039;-75
2024/04/21 03:18:11;;;;;;;3.80;2.65;;;;;;;1.66;100.00;102126.41;5195688;27;20494;-76
2024/04/21 03:20:37;;;;;;;6.18;2.65;;;;;;;1.62;100.00;102115.34;5168780;27;20012;-75
2024/04/21 03:23:03;;;;;;;4.22;2.58;;;;;;;1.61;100.00;102125.09;5166196;27;20023;-74
2024/04/21 03:25:28;;;;;;;3.95;2.95;;;;;;;1.58;100.00;102120.19;5141677;27;20022;-74
2024/04/21 03:27:54;;;;;;;4.38;2.95;;;;;;;1.55;100.00;102128.44;5167575;27;20018;-74
2024/04/21 03:30:19;;;;;;;5.70;2.97;;;;;;;1.54;100.00;102136.53;5173552;27;20019;-74
2024/04/21 03:32:45;;;;;;;4.80;2.72;;;;;;;1.52;100.00;102135.91;5155443;27;20019;-75
2024/04/21 03:35:11;;;;;;;5.28;3.08;;;;;;;1.47;100.00;102138.25;5147134;27;20008;-74
2024/04/21 03:37:37;;;;;;;6.22;3.00;;;;;;;1.48;100.00;102148.63;5171799;27;20012;-75
2024/04/21 03:40:03;;;;;;;3.67;2.47;;;;;;;1.47;100.00;102148.81;5117089;27;20107;-74
2024/04/21 03:42:29;;;;;;;5.68;3.22;;;;;;;1.47;100.00;102160.19;5196554;27;20008;-74
2024/04/21 03:44:55;;;;;;;3.97;2.33;;;;;;;1.47;100.00;102151.44;5165702;27;20022;-74
2024/04/21 03:47:21;;;;;;;4.07;3.00;;;;;;;1.46;100.00;102163.00;5190830;27;20019;-75
2024/04/21 03:49:47;;;;;;;4.25;2.88;;;;;;;1.43;100.00;102160.72;5177266;27;20004;-74
2024/04/21 03:52:12;;;;;;;4.40;2.72;;;;;;;1.41;100.00;102160.88;5144681;27;19999;-75
2024/04/21 03:54:38;;;;;;;4.50;2.97;;;;;;;1.38;100.00;102168.34;5190333;27;20018;-74
2024/04/21 03:57:05;;;;;;;4.90;2.90;;;;;;;1.34;100.00;102167.84;5139334;27;20015;-75
2024/04/21 03:59:31;;;;;;;4.78;3.08;;;;;;;1.34;100.00;102176.59;5189402;27;20887;-74
2024/04/21 04:01:57;;;;;;;3.85;2.70;;;;;;;1.32;100.00;102173.31;5168324;27;20000;-74
2024/04/21 04:04:23;;;;;;;4.90;3.00;;;;;;;1.33;100.00;102174.94;5175176;27;20064;-74
2024/04/21 04:06:49;;;;;;;6.47;2.90;;;;;;;1.32;100.00;102183.88;5174233;27;20016;-75
2024/04/21 04:09:15;;;;;;;5.97;2.90;;;;;;;1.31;100.00;102181.41;5192981;27;20018;-75
2024/04/21 04:11:41;;;;;;;3.90;2.65;;;;;;;1.30;100.00;102183.22;5163806;27;20083;-74
2024/04/21 04:14:06;;;;;;;4.53;2.80;;;;;;;1.30;100.00;102191.16;5175981;27;20458;-74
2024/04/21 04:16:32;;;;;;;5.03;3.08;;;;;;;1.32;100.00;102189.16;5187767;27;20003;-74
2024/04/21 04:18:57;;;;;;;5.15;3.17;;;;;;;1.32;100.00;102189.16;5113133;27;20418;-74
2024/04/21 04:21:23;;;;;;;4.53;2.90;;;;;;;1.32;100.00;102190.97;5174814;27;20084;-77
2024/04/21 04:23:50;;;;;;;5.05;2.60;;;;;;;1.31;100.00;102198.06;5192279;27;20099;-75
2024/04/21 04:26:16;;;;;;;4.97;2.63;;;;;;;1.33;100.00;102189.97;5160804;27;20007;-76
2024/04/21 04:28:42;;;;;;;5.03;2.53;;;;;;;1.34;100.00;102200.34;5167649;27;20104;-74
2024/04/21 04:31:08;;;;;;;4.15;2.42;;;;;;;1.36;100.00;102202.84;5179059;27;20004;-74
2024/04/21 04:33:33;;;;;;;3.88;2.90;;;;;;;1.40;100.00;102200.66;5167041;27;20357;-74
2024/04/21 04:35:59;;;;;;;4.03;2.88;;;;;;;1.40;100.00;102212.03;5200575;27;20015;-74
2024/04/21 04:38:24;;;;;;;4.32;3.00;;;;;;;1.39;100.00;102212.22;5171474;27;20015;-74
2024/04/21 04:40:50;;;;;;;6.63;2.40;;;;;;;1.40;100.00;102211.22;5189530;27;20014;-74
2024/04/21 04:43:16;;;;;;;;;;;;;;;1.43;100.00;102226.72;5198407;27;20023;-75
2024/04/21 04:45:42;;;;;;;3.30;2.30;;;;;;;1.46;100.00;102219.25;5166059;27;19936;-74
2024/04/21 04:48:08;;;;;;;3.33;2.17;;;;;;;1.48;100.00;102224.38;5196793;27;20007;-74
2024/04/21 04:50:36;;;;;;;3.75;2.75;;;;;;;1.53;100.00;102227.31;5162334;27;20000;-74
2024/04/21 04:53:02;;;;;;;4.93;3.10;;;;;;;1.55;100.00;102233.25;5202863;27;20007;-74
2024/04/21 04:55:28;;;;;;;4.10;2.70;;;;;;;1.58;100.00;102236.38;5193392;27;20019;-74
2024/04/21 04:57:54;;;;;;;10.35;3.05;;;;;;;1.63;100.00;102238.50;5157492;27;20067;-73
2024/04/21 05:00:20;;;;;;;4.05;3.33;;;;;;;1.72;100.00;102242.72;5176133;27;20000;-74
2024/04/21 05:02:45;;;;;;;4.45;2.95;;;;;;;1.79;100.00;102246.31;5193320;27;20545;-73
2024/04/21 05:05:11;;;;;;;4.13;2.67;;;;;;;1.83;100.00;102244.97;5202013;27;20011;-74
2024/04/21 05:07:37;;;;;;;5.25;3.33;;;;;;;1.94;100.00;102261.41;5146876;27;20011;-74
2024/04/21 05:10:03;;;;;;;4.00;2.83;;;;;;;2.02;100.00;102256.06;5163196;27;20046;-73
2024/04/21 05:12:28;;;;;;;4.93;3.47;;;;;;;2.12;100.00;102267.25;5192478;27;20603;-73
2024/04/21 05:14:54;;;;;;;4.68;2.85;;;;;;;2.19;100.00;102276.09;5149486;27;20008;-72
2024/04/21 05:17:20;;;;;;;6.63;2.90;;;;;;;2.27;100.00;102270.75;5194080;27;20015;-72
2024/04/21 05:19:47;;;;;;;4.28;3.03;;;;;;;2.34;100.00;102279.63;5173048;27;20018;-74
2024/04/21 05:22:13;;;;;;;4.68;3.00;;;;;;;2.42;100.00;102271.63;5169788;27;20087;-73
2024/04/21 05:24:39;;;;;;;3.95;3.10;;;;;;;2.47;100.00;102279.84;5192070;27;20036;-75
2024/04/21 05:27:04;;;;;;;4.80;3.03;;;;;;;2.55;100.00;102286.06;5170169;27;20488;-73
2024/04/21 05:29:30;;;;;;;4.97;3.38;;;;;;;2.61;100.00;102285.34;5163382;27;20012;-73
2024/04/21 05:31:56;;;;;;;4.63;3.00;;;;;;;2.68;100.00;102302.16;5190910;27;20064;-72
2024/04/21 05:34:21;;;;;;;6.70;2.70;;;;;;;2.76;100.00;102302.06;5187781;27;20005;-73
2024/04/21 05:36:47;;;;;;;4.00;2.42;;;;;;;2.85;100.00;102295.72;5192830;27;20094;-73
2024/04/21 05:39:13;;;;;;;5.93;2.95;;;;;;;2.92;100.00;102294.00;5171434;27;20071;-72
2024/04/21 05:41:38;;;;;;;4.15;3.15;;;;;;;2.95;100.00;102298.91;5190452;27;20018;-72
2024/04/21 05:44:05;;;;;;;3.50;2.40;;;;;;;2.93;100.00;102300.09;5167367;27;20019;-72
2024/04/21 05:46:31;;;;;;;5.22;3.08;;;;;;;2.95;100.00;102304.19;5161698;27;20009;-74
2024/04/21 05:48:59;;;;;;;4.95;2.85;;;;;;;3.01;100.00;102308.78;5169106;27;20019;-74
2024/04/21 05:51:24;;;;;;;3.45;2.53;;;;;;;3.10;100.00;102314.78;5168539;27;20014;-73
2024/04/21 05:53:50;;;;;;;3.20;2.22;;;;;;;3.12;100.00;102317.28;5170879;27;20020;-74
2024/04/21 05:56:16;;;;;;;3.38;2.35;;;;;;;3.21;100.00;102321.47;5193486;27;20121;-74
2024/04/21 05:58:42;;;;;;;4.07;2.83;;;;;;;3.28;100.00;102317.91;5162530;27;20019;-73
2024/04/21 06:01:07;;;;;;;3.72;2.70;;;;;;;3.38;100.00;102320.28;5136079;27;20426;-73
2024/04/21 06:03:33;;;;;;;3.83;2.80;;;;;;;3.47;100.00;102332.44;5191792;27;20059;-74
2024/04/21 06:06:00;;;;;;;5.57;2.30;;;;;;;3.54;100.00;102330.69;5191437;27;20817;-74
2024/04/21 06:08:26;;;;;;;4.30;2.25;;;;;;;3.59;100.00;102332.81;5172087;27;20244;-74
2024/04/21 06:10:51;;;;;;;3.13;2.20;;;;;;;3.74;100.00;102330.13;5154566;27;20552;-74
2024/04/21 06:13:17;;;;;;;3.70;2.45;;;;;;;3.85;100.00;102342.88;5169691;27;20003;-74
2024/04/21 06:15:43;;;;;;;5.10;2.50;;;;;;;3.90;100.00;102337.84;5141690;27;20026;-74
2024/04/21 06:18:08;;;;;;;3.42;2.45;;;;;;;4.06;100.00;102350.06;5172723;27;20815;-74
2024/04/21 06:20:34;;;;;;;3.03;2.15;;;;;;;4.13;100.00;102350.94;5176871;27;20051;-74
2024/04/21 06:23:00;;;;;;;3.40;1.88;;;;;;;4.18;100.00;102348.56;5174505;27;20007;-73
2024/04/21 06:25:26;;;;;;;4.35;1.77;;;;;;;4.31;100.00;102347.88;5150948;27;20015;-73
2024/04/21 06:27:52;;;;;;;2.85;2.35;;;;;;;4.45;100.00;102359.44;5145727;27;20019;-73
2024/04/21 06:30:17;;;;;;;3.78;2.17;;;;;;;4.52;100.00;102355.03;5177246;27;20118;-74
2024/04/21 06:32:43;;;;;;;3.40;2.47;;;;;;;4.58;100.00;102360.38;5150914;27;20007;-73
2024/04/21 06:35:09;;;;;;;3.95;2.20;;;;;;;4.64;100.00;102364.13;5165162;27;20018;-74
2024/04/21 06:37:34;;;;;;;3.42;2.50;;;;;;;4.71;100.00;102365.00;5137434;27;20059;-74
2024/04/21 06:40:00;;;;;;;4.07;2.33;;;;;;;4.80;100.00;102363.84;5194631;27;20005;-73
2024/04/21 06:42:26;;;;;;;4.13;2.33;;;;;;;4.84;100.00;102367.78;5173344;27;20003;-73
2024/04/21 06:44:51;;;;;;;3.55;2.08;;;;;;;4.86;100.00;102373.69;5181765;27;20004;-73
2024/04/21 06:47:17;;;;;;;4.13;2.30;;;;;;;4.89;100.00;102383.94;5135413;27;19999;-73
2024/04/21 06:49:43;;;;;;;3.15;2.35;;;;;;;4.97;100.00;102380.34;5191563;27;20014;-74
2024/04/21 06:52:08;;;;;;;3.47;2.15;;;;;;;5.04;100.00;102381.22;5198494;27;20004;-73
2024/04/21 06:54:34;;;;;;;3.60;2.60;;;;;;;5.08;100.00;102377.16;5189393;27;20014;-74
2024/04/21 06:57:00;;;;;;;5.32;2.10;;;;;;;5.17;100.00;102386.63;5153140;27;20004;-73
2024/04/21 06:59:25;;;;;;;3.60;2.10;;;;;;;5.32;100.00;102383.03;5174664;27;20019;-75
2024/04/21 07:01:52;;;;;;;4.80;2.58;;;;;;;5.40;100.00;102388.19;5197666;27;20011;-74
2024/04/21 07:04:18;;;;;;;3.40;2.10;;;;;;;5.42;100.00;102387.00;5171902;27;20019;-74
2024/04/21 07:06:44;;;;;;;2.70;1.98;;;;;;;5.54;100.00;102386.44;5174138;27;20799;-73
2024/04/21 07:09:10;;;;;;;3.22;2.03;;;;;;;5.63;100.00;102396.72;5144579;27;20007;-73
2024/04/21 07:11:35;;;;;;;3.35;2.30;;;;;;;5.74;100.00;102393.50;5202337;27;20083;-73
2024/04/21 07:14:01;;;;;;;4.15;2.28;;;;;;;5.82;100.00;102397.00;5165369;27;20324;-72
2024/04/21 07:16:27;;;;;;;2.83;1.70;;;;;;;5.84;100.00;102397.66;5191349;27;20471;-72
2024/04/21 07:18:53;;;;;;;4.13;1.73;;;;;;;5.88;100.00;102406.84;5175561;27;20000;-72
2024/04/21 07:21:19;;;;;;;3.28;2.00;;;;;;;5.87;100.00;102403.38;5200233;27;20008;-72
2024/04/21 07:23:45;;;;;;;2.20;1.80;;;;;;;5.92;100.00;102416.13;5116618;27;20055;-72
2024/04/21 07:26:12;;;;;;;2.60;1.80;;;;;;;6.01;100.00;102406.94;5196391;27;20880;-74
2024/04/21 07:28:39;;;;;;;3.58;2.17;;;;;;;6.10;100.00;102411.09;5171991;27;20064;-73
2024/04/21 07:31:04;;;;;;;3.20;1.42;;;;;;;6.17;100.00;102411.94;5171181;27;20000;-73
2024/04/21 07:33:31;;;;;;;1.83;1.55;;;;;;;6.21;100.00;102410.50;5175770;27;20052;-72
2024/04/21 07:35:57;;;;;;;2.15;1.38;;;;;;;6.25;97.87;102429.56;5192615;27;20802;-75
2024/04/21 07:38:22;;;;;;;4.72;1.65;;;;;;;6.31;88.94;102414.63;5168411;27;20007;-72
2024/04/21 07:40:48;;;;;;;3.13;1.70;;;;;;;6.35;95.01;102424.66;5147878;27;20027;-72
2024/04/21 07:43:14;;;;;;;2.65;1.55;;;;;;;6.40;86.73;102419.56;5166778;27;20018;-73
2024/04/21 07:45:42;;;;;;;4.28;1.90;;;;;;;6.45;90.86;102430.44;5178591;27;20039;-73
2024/04/21 07:48:08;;;;;;;3.33;1.80;;;;;;;6.52;97.60;102425.13;5144747;27;20004;-72
2024/04/21 07:50:34;;;;;;;2.35;1.92;;;;;;;6.55;84.94;102433.53;5206226;27;20003;-73
2024/04/21 07:52:59;;;;;;;3.03;1.48;;;;;;;6.70;85.62;102432.53;5168130;27;20351;-73
2024/04/21 07:55:27;;;;;;;2.13;1.88;;;;;;;6.67;76.69;102428.44;5193792;27;20004;-74
2024/04/21 07:57:52;;;;;;;2.42;1.60;;;;;;;6.67;77.58;102430.28;5169405;27;20026;-74
2024/04/21 08:00:18;;;;;;;2.58;1.80;;;;;;;6.83;89.39;102435.19;5184543;27;20016;-74
2024/04/21 08:02:45;;;;;;;2.95;1.70;;;;;;;6.90;82.28;102440.53;5189096;27;20775;-71
2024/04/21 08:05:11;;;;;;;2.08;1.60;;;;;;;6.92;71.57;102441.19;5201536;27;20024;-72
2024/04/21 08:07:37;;;;;;;2.63;1.67;;;;;;;6.94;69.52;102437.28;5141532;27;20472;-73
2024/04/21 08:10:03;;;;;;;3.40;1.70;;;;;;;7.02;73.69;102439.72;5145309;27;20526;-73
2024/04/21 08:12:29;;;;;;;2.05;1.45;;;;;;;7.11;71.62;102443.00;5194862;27;20102;-72
2024/04/21 08:14:55;;;;;;;2.63;1.50;;;;;;;7.20;69.98;102452.44;5141720;27;20017;-73
2024/04/21 08:17:20;;;;;;;2.70;1.60;;;;;;;7.27;73.53;102445.28;5168947;27;20056;-72
2024/04/21 08:19:46;;;;;;;2.72;1.60;;;;;;;7.34;68.27;102451.41;5163532;27;20093;-72
2024/04/21 08:22:12;;;;;;;2.05;1.40;;;;;;;7.32;65.05;102450.81;5163165;27;20023;-74
2024/04/21 08:24:39;;;;;;;2.30;1.80;;;;;;;7.32;65.65;102450.00;5195971;27;20008;-73
2024/04/21 08:27:05;;;;;;;4.00;1.45;;;;;;;7.34;64.36;102456.75;5205178;27;20018;-74
2024/04/21 08:29:31;;;;;;;2.30;1.42;;;;;;;7.45;70.16;102454.47;5173603;27;20012;-73
2024/04/21 08:31:58;;;;;;;2.10;1.50;;;;;;;7.54;67.66;102453.25;5190531;27;20008;-73
2024/04/21 08:34:23;;;;;;;2.55;1.25;;;;;;;7.48;62.44;102462.06;5191244;27;20004;-73
2024/04/21 08:36:49;;;;;;;4.00;1.33;;;;;;;7.42;61.50;102460.22;5169255;27;20082;-73
2024/04/21 08:39:15;;;;;;;2.83;1.40;;;;;;;7.42;59.98;102461.03;5183897;27;20086;-74
2024/04/21 08:41:41;;;;;;;2.42;1.50;;;;;;;7.62;63.61;102455.69;5168873;27;20545;-73
2024/04/21 08:44:11;;;;;;;2.97;1.50;;;;;;;7.67;61.96;102463.91;5172000;27;20008;-72
2024/04/21 08:46:37;;;;;;;2.22;1.52;;;;;;;7.79;64.93;102454.22;5174809;27;20004;-73
2024/04/21 08:49:04;;;;;;;2.55;1.52;;;;;;;7.84;62.73;102461.59;5175709;27;20340;-73
2024/04/21 08:51:34;;;;;;;2.10;1.35;;;;;;;7.96;64.14;102457.25;5176540;27;20026;-74
2024/04/21 08:54:00;;;;;;;2.63;1.52;;;;;;;7.97;61.75;102460.72;5137499;27;20014;-73
2024/04/21 08:56:29;;;;;;;2.58;1.50;;;;;;;8.12;62.43;102466.63;5163136;27;20023;-73
2024/04/21 08:58:55;;;;;;;1.85;1.30;;;;;;;8.19;64.79;102464.75;5170293;27;22957;-72
2024/04/21 09:01:22;;;;;;;1.85;1.50;;;;;;;8.23;64.87;102467.81;5137922;27;20015;-72
2024/04/21 09:03:50;;;;;;;3.05;1.63;;;;;;;8.20;61.15;102477.09;5168447;27;20022;-72
2024/04/21 09:06:16;;;;;;;2.22;1.50;;;;;;;8.21;62.21;102476.06;5170847;27;20004;-73
2024/04/21 09:08:42;;;;;;;;;;;;;;;8.07;60.10;102474.47;5169010;27;20008;-73
2024/04/21 09:11:11;;;;;;;1.80;1.30;;;;;;;7.96;58.77;102467.09;5144682;27;19934;-72
2024/04/21 09:13:37;;;;;;;2.15;1.35;;;;;;;7.96;58.24;102473.25;5188969;27;20042;-72
2024/04/21 09:16:03;;;;;;;2.05;1.40;;;;;;;7.86;59.28;102471.03;5172333;27;20016;-73
2024/04/21 09:18:29;;;;;;;;;;;;;;;8.07;63.39;102474.47;5161727;27;20014;-72
2024/04/21 09:20:54;;;;;;;2.15;1.50;;;;;;;8.11;59.19;102470.31;5191805;27;20696;-73
2024/04/21 09:23:21;;;;;;;2.33;1.30;;;;;;;8.21;58.02;102476.88;5148081;27;20014;-72
2024/04/21 09:25:46;;;;;;;2.00;1.77;;;;;;;8.18;56.78;102476.47;5172095;27;20011;-73
2024/04/21 09:28:12;;;;;;;2.17;1.20;;;;;;;8.26;58.92;102470.88;5173468;27;20004;-72
2024/04/21 09:30:39;;;;;;;2.42;1.30;;;;;;;8.17;61.16;102480.16;5175829;27;20348;-72
2024/04/21 09:33:06;;;;;;;2.05;1.40;;;;;;;7.90;57.97;102474.09;5174217;27;20011;-73
2024/04/21 09:35:32;;;;;;;4.45;1.60;;;;;;;7.94;57.61;102472.66;5193969;27;20008;-72
2024/04/21 09:37:57;;;;;;;3.15;1.40;;;;;;;8.17;59.71;102474.81;5136015;27;20369;-73
2024/04/21 09:40:24;;;;;;;3.22;1.48;;;;;;;8.37;58.62;102475.59;5143357;27;20656;-73
2024/04/21 09:42:50;;;;;;;;;;;;;;;8.50;57.40;102481.91;5174864;27;20015;-73
2024/04/21 09:45:17;;;;;;;2.38;1.45;;;;;;;8.61;57.19;102467.88;5191180;27;19935;-74
2024/04/21 09:47:44;;;;;;;2.28;1.55;;;;;;;8.74;57.76;102465.16;5178096;27;20003;-73
2024/04/21 09:50:12;;;;;;;2.00;1.15;;;;;;;8.92;60.00;102473.22;5144809;27;20019;-73
2024/04/21 09:52:38;;;;;;;1.65;1.33;;;;;;;8.74;56.17;102475.81;5171465;27;20007;-72
2024/04/21 09:55:05;;;;;;;2.75;1.30;;;;;;;8.56;55.92;102475.72;5200971;27;20008;-73
2024/04/21 09:57:37;;;;;;;2.35;1.50;;;;;;;8.67;60.82;102467.00;5178362;27;20003;-72
2024/04/21 10:00:04;;;;;;;;;;;;;;;8.79;56.87;102473.31;5195726;27;20450;-73
2024/04/21 10:02:41;;;;;;;4.45;1.35;;;;;;;8.88;60.89;102471.22;5182405;27;19927;-72
2024/04/21 10:05:15;;;;;;;1.30;0.95;;;;;;;9.05;56.65;102476.84;5195975;27;20011;-72
2024/04/21 10:07:43;;;;;;;2.22;1.48;;;;;;;9.08;58.21;102477.25;5165843;27;20030;-73
2024/04/21 10:10:10;;;;;;;3.22;1.23;;;;;;;9.24;55.77;102470.53;5142077;27;20012;-72
2024/04/21 10:12:38;;;;;;;1.75;1.15;;;;;;;9.29;54.50;102465.34;5165939;27;20351;-72
2024/04/21 10:15:06;;;;;;;2.35;1.33;;;;;;;9.52;56.03;102467.41;5166752;27;20045;-72
2024/04/21 10:17:32;;;;;;;1.75;1.33;;;;;;;9.76;56.27;102473.75;5177043;27;20008;-73
2024/04/21 10:20:06;;;;;;;1.88;1.60;;;;;;;9.67;53.32;102473.22;5197751;27;20043;-73
2024/04/21 10:22:33;;;;;;;2.80;1.40;;;;;;;9.89;56.62;102481.66;5205327;27;20016;-72
2024/04/21 10:25:02;;;;;;;2.15;1.70;;;;;;;10.14;54.92;102465.50;5175508;27;20003;-72
2024/04/21 10:27:28;;;;;;;2.42;1.35;;;;;;;10.08;52.64;102469.88;5163318;27;20028;-72
2024/04/21 10:29:53;;;;;;;2.50;1.40;;;;;;;10.01;52.20;102469.13;5180405;27;20565;-72
2024/04/21 10:32:25;;;;;;;2.75;1.35;;;;;;;9.81;53.56;102471.22;5144568;27;20026;-72
2024/04/21 10:34:50;;;;;;;2.10;1.63;;;;;;;9.67;51.21;102483.09;5184271;27;20004;-72
2024/04/21 10:37:21;;;;;;;1.95;1.35;;;;;;;9.46;55.15;102478.97;5194971;27;20046;-73
2024/04/21 10:39:46;;;;;;;1.70;1.25;;;;;;;9.32;55.63;102477.44;5162167;27;20076;-72
2024/04/21 10:42:15;;;;;;;2.17;1.40;;;;;;;9.18;53.22;102479.41;5195896;27;20138;-72
2024/04/21 10:44:40;;;;;;;2.90;1.30;;;;;;;9.10;53.45;102487.72;5194967;27;20886;-72
2024/04/21 10:47:06;;;;;;;1.50;1.02;;;;;;;9.25;54.22;102483.66;5165597;27;20012;-73
2024/04/21 10:49:32;;;;;;;2.40;1.40;;;;;;;9.48;55.03;102492.94;5197427;27;20007;-72
2024/04/21 10:51:57;;;;;;;2.40;1.73;;;;;;;9.26;52.25;102479.97;5141965;27;20076;-72
2024/04/21 10:54:23;;;;;;;2.38;1.20;;;;;;;8.95;51.36;102478.16;5139785;27;20486;-72
2024/04/21 10:56:49;;;;;;;2.33;1.60;;;;;;;8.98;51.18;102480.38;5164022;27;20024;-73
2024/04/21 10:59:15;;;;;;;;;;;;;;;8.98;55.12;102485.72;5167378;27;20015;-72
2024/04/21 11:01:40;;;;;;;4.65;1.50;;;;;;;8.92;53.73;102475.06;5196815;27;20658;-71
2024/04/21 11:04:06;;;;;;;2.30;1.60;;;;;;;8.88;53.33;102474.72;5159705;27;20456;-73
2024/04/21 11:06:32;;;;;;;1.77;1.20;;;;;;;8.84;51.03;102465.47;5169062;27;20087;-72
2024/04/21 11:08:57;;;;;;;1.90;1.50;;;;;;;8.81;52.26;102476.59;5192578;27;20016;-72
2024/04/21 11:11:23;;;;;;;3.13;1.45;;;;;;;9.09;52.10;102478.06;5132424;27;20008;-73
2024/04/21 11:13:49;;;;;;;1.80;1.50;;;;;;;9.12;52.07;102473.06;5124314;27;951760;-72
2024/04/21 11:16:15;;;;;;;2.30;1.20;;;;;;;9.10;50.41;102480.50;5141168;27;20008;-71
2024/04/21 11:18:41;;;;;;;4.10;1.33;;;;;;;9.04;52.52;102468.00;5183549;27;20015;-72
2024/04/21 11:21:07;;;;;;;;;;;;;;;9.23;52.42;102471.56;5179852;27;20463;-73
2024/04/21 11:23:34;;;;;;;1.50;1.10;;;;;;;9.38;50.64;102472.03;5199593;27;20376;-72